sensor_id;sensor_type;location;lat;lon;timestamp;P1;durP1;ratioP1;P2;durP2;ratioP2
40150;SDS011;25866;52.420;10.640;2022-11-06T00:00:55;6.13;;;2.83;;
40150;SDS011;25866;52.420;10.640;2022-11-06T00:03:21;6.23;;;3.00;;
40150;SDS011;25866;52.420;10.640;2022-11-06T00:05:48;4.43;;;2.57;;
40150;SDS011;25866;52.420;10.640;2022-11-06T00:08:36;5.80;;;2.67;;
40150;SDS011;25866;52.420;10.640;2022-11-06T00:11:12;6.70;;;2.43;;
40150;SDS011;25866;52.420;10.640;2022-11-06T00:13:39;3.40;;;2.53;;
40150;SDS011;25866;52.420;10.640;2022-11-06T00:16:07;5.07;;;2.73;;
40150;SDS011;25866;52.420;10.640;2022-11-06T00:18:34;5.63;;;3.07;;
40150;SDS011;25866;52.420;10.640;2022-11-06T00:21:11;5.53;;;3.17;;
40150;SDS011;25866;52.420;10.640;2022-11-06T00:23:38;6.60;;;3.27;;
40150;SDS011;25866;52.420;10.640;2022-11-06T00:26:06;7.80;;;3.07;;
40150;SDS011;25866;52.420;10.640;2022-11-06T00:28:32;5.60;;;2.47;;
40150;SDS011;25866;52.420;10.640;2022-11-06T00:31:00;4.50;;;2.60;;
40150;SDS011;25866;52.420;10.640;2022-11-06T00:33:30;12.27;;;2.93;;
40150;SDS011;25866;52.420;10.640;2022-11-06T00:35:56;6.30;;;2.57;;
40150;SDS011;25866;52.420;10.640;2022-11-06T00:38:22;7.53;;;2.83;;
40150;SDS011;25866;52.420;10.640;2022-11-06T00:40:48;3.97;;;2.53;;
40150;SDS011;25866;52.420;10.640;2022-11-06T00:43:14;5.77;;;2.87;;
40150;SDS011;25866;52.420;10.640;2022-11-06T00:45:41;4.03;;;2.40;;
40150;SDS011;25866;52.420;10.640;2022-11-06T00:48:07;6.87;;;3.07;;
40150;SDS011;25866;52.420;10.640;2022-11-06T00:50:33;5.50;;;2.60;;
40150;SDS011;25866;52.420;10.640;2022-11-06T00:52:58;7.60;;;2.63;;
40150;SDS011;25866;52.420;10.640;2022-11-06T00:55:24;8.67;;;3.07;;
40150;SDS011;25866;52.420;10.640;2022-11-06T00:57:50;5.13;;;2.83;;
40150;SDS011;25866;52.420;10.640;2022-11-06T01:00:16;8.10;;;2.80;;
40150;SDS011;25866;52.420;10.640;2022-11-06T01:02:44;6.73;;;2.67;;
40150;SDS011;25866;52.420;10.640;2022-11-06T01:05:11;4.77;;;2.63;;
40150;SDS011;25866;52.420;10.640;2022-11-06T01:07:38;5.20;;;2.97;;
40150;SDS011;25866;52.420;10.640;2022-11-06T01:10:05;6.30;;;3.20;;
40150;SDS011;25866;52.420;10.640;2022-11-06T01:12:32;5.23;;;2.93;;
40150;SDS011;25866;52.420;10.640;2022-11-06T01:14:58;5.83;;;2.90;;
40150;SDS011;25866;52.420;10.640;2022-11-06T01:17:24;8.80;;;3.47;;
40150;SDS011;25866;52.420;10.640;2022-11-06T01:19:50;6.00;;;3.20;;
40150;SDS011;25866;52.420;10.640;2022-11-06T01:22:17;4.83;;;2.40;;
40150;SDS011;25866;52.420;10.640;2022-11-06T01:24:43;4.53;;;2.67;;
40150;SDS011;25866;52.420;10.640;2022-11-06T01:27:09;4.40;;;2.50;;
40150;SDS011;25866;52.420;10.640;2022-11-06T01:29:35;6.07;;;2.43;;
40150;SDS011;25866;52.420;10.640;2022-11-06T01:32:01;6.03;;;2.70;;
40150;SDS011;25866;52.420;10.640;2022-11-06T01:34:27;7.00;;;2.87;;
40150;SDS011;25866;52.420;10.640;2022-11-06T01:36:53;5.60;;;3.10;;
40150;SDS011;25866;52.420;10.640;2022-11-06T01:39:18;4.07;;;2.83;;
40150;SDS011;25866;52.420;10.640;2022-11-06T01:41:48;4.97;;;2.53;;
40150;SDS011;25866;52.420;10.640;2022-11-06T01:47:01;5.70;;;2.67;;
40150;SDS011;25866;52.420;10.640;2022-11-06T01:49:42;4.53;;;2.90;;
40150;SDS011;25866;52.420;10.640;2022-11-06T01:52:09;4.97;;;2.77;;
40150;SDS011;25866;52.420;10.640;2022-11-06T01:54:39;4.60;;;2.50;;
40150;SDS011;25866;52.420;10.640;2022-11-06T01:57:06;7.23;;;3.00;;
40150;SDS011;25866;52.420;10.640;2022-11-06T01:59:35;4.67;;;2.80;;
40150;SDS011;25866;52.420;10.640;2022-11-06T02:02:04;8.63;;;2.90;;
40150;SDS011;25866;52.420;10.640;2022-11-06T02:04:37;5.63;;;2.70;;
40150;SDS011;25866;52.420;10.640;2022-11-06T02:07:06;4.07;;;2.33;;
40150;SDS011;25866;52.420;10.640;2022-11-06T02:09:33;7.80;;;2.63;;
40150;SDS011;25866;52.420;10.640;2022-11-06T02:12:13;6.23;;;2.87;;
40150;SDS011;25866;52.420;10.640;2022-11-06T02:21:16;5.40;;;2.57;;
40150;SDS011;25866;52.420;10.640;2022-11-06T02:32:21;5.07;;;2.40;;
40150;SDS011;25866;52.420;10.640;2022-11-06T02:34:53;2.83;;;2.23;;
40150;SDS011;25866;52.420;10.640;2022-11-06T02:37:29;3.83;;;2.30;;
40150;SDS011;25866;52.420;10.640;2022-11-06T02:40:00;5.73;;;2.40;;
40150;SDS011;25866;52.420;10.640;2022-11-06T02:42:30;5.23;;;2.77;;
40150;SDS011;25866;52.420;10.640;2022-11-06T02:45:01;7.70;;;2.40;;
40150;SDS011;25866;52.420;10.640;2022-11-06T02:47:27;6.50;;;2.70;;
40150;SDS011;25866;52.420;10.640;2022-11-06T02:49:59;11.37;;;2.40;;
40150;SDS011;25866;52.420;10.640;2022-11-06T02:52:37;4.87;;;2.40;;
40150;SDS011;25866;52.420;10.640;2022-11-06T02:55:08;5.17;;;2.40;;
40150;SDS011;25866;52.420;10.640;2022-11-06T02:57:41;4.43;;;2.30;;
40150;SDS011;25866;52.420;10.640;2022-11-06T03:00:12;8.23;;;2.43;;
40150;SDS011;25866;52.420;10.640;2022-11-06T03:07:55;6.90;;;2.60;;
40150;SDS011;25866;52.420;10.640;2022-11-06T03:11:02;7.83;;;3.07;;
40150;SDS011;25866;52.420;10.640;2022-11-06T03:19:01;8.37;;;3.20;;
40150;SDS011;25866;52.420;10.640;2022-11-06T03:21:42;4.93;;;3.30;;
40150;SDS011;25866;52.420;10.640;2022-11-06T03:24:29;7.83;;;3.57;;
40150;SDS011;25866;52.420;10.640;2022-11-06T03:27:00;6.90;;;3.20;;
40150;SDS011;25866;52.420;10.640;2022-11-06T03:29:46;7.40;;;3.27;;
40150;SDS011;25866;52.420;10.640;2022-11-06T03:32:43;5.87;;;3.10;;
40150;SDS011;25866;52.420;10.640;2022-11-06T03:41:25;6.90;;;3.03;;
40150;SDS011;25866;52.420;10.640;2022-11-06T03:43:51;4.60;;;3.00;;
40150;SDS011;25866;52.420;10.640;2022-11-06T03:46:22;4.43;;;2.80;;
40150;SDS011;25866;52.420;10.640;2022-11-06T03:48:54;3.30;;;2.47;;
40150;SDS011;25866;52.420;10.640;2022-11-06T03:51:32;4.80;;;3.10;;
40150;SDS011;25866;52.420;10.640;2022-11-06T03:54:16;5.67;;;2.80;;
40150;SDS011;25866;52.420;10.640;2022-11-06T03:56:48;4.83;;;3.00;;
40150;SDS011;25866;52.420;10.640;2022-11-06T03:59:15;4.73;;;3.17;;
40150;SDS011;25866;52.420;10.640;2022-11-06T04:01:48;4.13;;;2.73;;
40150;SDS011;25866;52.420;10.640;2022-11-06T04:04:18;7.47;;;3.20;;
40150;SDS011;25866;52.420;10.640;2022-11-06T04:06:56;6.43;;;3.10;;
40150;SDS011;25866;52.420;10.640;2022-11-06T04:09:28;12.10;;;3.47;;
40150;SDS011;25866;52.420;10.640;2022-11-06T04:12:16;6.67;;;3.00;;
40150;SDS011;25866;52.420;10.640;2022-11-06T04:15:05;7.57;;;3.53;;
40150;SDS011;25866;52.420;10.640;2022-11-06T04:17:37;7.97;;;3.13;;
40150;SDS011;25866;52.420;10.640;2022-11-06T04:20:06;6.70;;;2.90;;
40150;SDS011;25866;52.420;10.640;2022-11-06T04:23:19;5.53;;;3.20;;
40150;SDS011;25866;52.420;10.640;2022-11-06T04:29:36;7.17;;;3.00;;
40150;SDS011;25866;52.420;10.640;2022-11-06T04:32:21;7.10;;;3.23;;
40150;SDS011;25866;52.420;10.640;2022-11-06T04:37:24;6.50;;;3.30;;
40150;SDS011;25866;52.420;10.640;2022-11-06T04:45:05;4.67;;;2.63;;
40150;SDS011;25866;52.420;10.640;2022-11-06T04:47:35;6.00;;;3.07;;
40150;SDS011;25866;52.420;10.640;2022-11-06T04:50:03;5.73;;;2.93;;
40150;SDS011;25866;52.420;10.640;2022-11-06T04:52:32;6.10;;;2.80;;
40150;SDS011;25866;52.420;10.640;2022-11-06T04:55:01;7.33;;;3.20;;
40150;SDS011;25866;52.420;10.640;2022-11-06T04:57:26;8.03;;;3.33;;
40150;SDS011;25866;52.420;10.640;2022-11-06T04:59:52;6.73;;;3.07;;
40150;SDS011;25866;52.420;10.640;2022-11-06T05:02:20;8.00;;;3.60;;
40150;SDS011;25866;52.420;10.640;2022-11-06T05:04:46;6.03;;;2.73;;
40150;SDS011;25866;52.420;10.640;2022-11-06T05:07:13;6.57;;;3.13;;
40150;SDS011;25866;52.420;10.640;2022-11-06T05:09:40;6.80;;;3.07;;
40150;SDS011;25866;52.420;10.640;2022-11-06T05:12:06;6.90;;;3.40;;
40150;SDS011;25866;52.420;10.640;2022-11-06T05:14:32;11.17;;;3.57;;
40150;SDS011;25866;52.420;10.640;2022-11-06T05:16:58;6.17;;;2.70;;
40150;SDS011;25866;52.420;10.640;2022-11-06T05:19:24;8.53;;;3.23;;
40150;SDS011;25866;52.420;10.640;2022-11-06T05:21:50;8.37;;;3.23;;
40150;SDS011;25866;52.420;10.640;2022-11-06T05:24:34;12.47;;;3.60;;
40150;SDS011;25866;52.420;10.640;2022-11-06T05:27:00;6.97;;;3.47;;
40150;SDS011;25866;52.420;10.640;2022-11-06T05:29:26;6.60;;;3.17;;
40150;SDS011;25866;52.420;10.640;2022-11-06T05:31:52;5.97;;;2.97;;
40150;SDS011;25866;52.420;10.640;2022-11-06T05:34:17;5.63;;;2.83;;
40150;SDS011;25866;52.420;10.640;2022-11-06T05:36:43;9.07;;;3.07;;
40150;SDS011;25866;52.420;10.640;2022-11-06T05:39:09;7.43;;;2.90;;
40150;SDS011;25866;52.420;10.640;2022-11-06T05:41:35;8.73;;;3.20;;
40150;SDS011;25866;52.420;10.640;2022-11-06T05:44:01;4.53;;;2.83;;
40150;SDS011;25866;52.420;10.640;2022-11-06T05:46:26;6.93;;;2.93;;
40150;SDS011;25866;52.420;10.640;2022-11-06T05:48:52;8.47;;;3.07;;
40150;SDS011;25866;52.420;10.640;2022-11-06T05:51:18;7.47;;;3.50;;
40150;SDS011;25866;52.420;10.640;2022-11-06T05:53:44;4.77;;;2.53;;
40150;SDS011;25866;52.420;10.640;2022-11-06T05:56:10;9.43;;;3.40;;
40150;SDS011;25866;52.420;10.640;2022-11-06T05:58:35;7.10;;;2.83;;
40150;SDS011;25866;52.420;10.640;2022-11-06T06:01:01;7.80;;;3.60;;
40150;SDS011;25866;52.420;10.640;2022-11-06T06:03:28;9.27;;;3.10;;
40150;SDS011;25866;52.420;10.640;2022-11-06T06:05:53;8.67;;;2.90;;
40150;SDS011;25866;52.420;10.640;2022-11-06T06:08:19;6.97;;;3.60;;
40150;SDS011;25866;52.420;10.640;2022-11-06T06:10:46;7.10;;;3.03;;
40150;SDS011;25866;52.420;10.640;2022-11-06T06:13:12;5.43;;;3.13;;
40150;SDS011;25866;52.420;10.640;2022-11-06T06:15:39;7.87;;;3.30;;
40150;SDS011;25866;52.420;10.640;2022-11-06T06:18:06;7.03;;;3.67;;
40150;SDS011;25866;52.420;10.640;2022-11-06T06:20:33;8.03;;;2.90;;
40150;SDS011;25866;52.420;10.640;2022-11-06T06:23:00;5.97;;;3.10;;
40150;SDS011;25866;52.420;10.640;2022-11-06T06:25:26;8.67;;;3.23;;
40150;SDS011;25866;52.420;10.640;2022-11-06T06:27:53;6.20;;;2.90;;
40150;SDS011;25866;52.420;10.640;2022-11-06T06:30:20;5.67;;;2.77;;
40150;SDS011;25866;52.420;10.640;2022-11-06T06:32:47;7.30;;;2.60;;
40150;SDS011;25866;52.420;10.640;2022-11-06T06:35:14;7.10;;;2.90;;
40150;SDS011;25866;52.420;10.640;2022-11-06T06:37:42;7.97;;;2.97;;
40150;SDS011;25866;52.420;10.640;2022-11-06T06:40:20;8.07;;;3.23;;
40150;SDS011;25866;52.420;10.640;2022-11-06T06:42:46;8.17;;;3.10;;
40150;SDS011;25866;52.420;10.640;2022-11-06T06:45:12;10.27;;;3.03;;
40150;SDS011;25866;52.420;10.640;2022-11-06T06:47:39;8.33;;;2.83;;
40150;SDS011;25866;52.420;10.640;2022-11-06T06:50:04;10.50;;;3.10;;
40150;SDS011;25866;52.420;10.640;2022-11-06T06:52:31;5.40;;;2.63;;
40150;SDS011;25866;52.420;10.640;2022-11-06T06:54:57;8.07;;;3.33;;
40150;SDS011;25866;52.420;10.640;2022-11-06T06:57:23;4.07;;;3.07;;
40150;SDS011;25866;52.420;10.640;2022-11-06T06:59:49;8.00;;;3.03;;
40150;SDS011;25866;52.420;10.640;2022-11-06T07:02:15;4.63;;;2.97;;
40150;SDS011;25866;52.420;10.640;2022-11-06T07:04:40;4.87;;;2.90;;
40150;SDS011;25866;52.420;10.640;2022-11-06T07:07:06;6.57;;;3.20;;
40150;SDS011;25866;52.420;10.640;2022-11-06T07:09:32;6.63;;;3.07;;
40150;SDS011;25866;52.420;10.640;2022-11-06T07:11:58;8.40;;;2.97;;
40150;SDS011;25866;52.420;10.640;2022-11-06T07:14:24;10.27;;;3.77;;
40150;SDS011;25866;52.420;10.640;2022-11-06T07:16:50;4.03;;;2.60;;
40150;SDS011;25866;52.420;10.640;2022-11-06T07:19:16;5.30;;;3.00;;
40150;SDS011;25866;52.420;10.640;2022-11-06T07:21:41;8.33;;;2.87;;
40150;SDS011;25866;52.420;10.640;2022-11-06T07:24:07;5.97;;;2.63;;
40150;SDS011;25866;52.420;10.640;2022-11-06T07:26:33;7.87;;;3.07;;
40150;SDS011;25866;52.420;10.640;2022-11-06T07:28:59;6.27;;;2.83;;
40150;SDS011;25866;52.420;10.640;2022-11-06T07:31:25;7.87;;;2.73;;
40150;SDS011;25866;52.420;10.640;2022-11-06T07:33:51;8.83;;;3.03;;
40150;SDS011;25866;52.420;10.640;2022-11-06T07:36:17;5.63;;;3.17;;
40150;SDS011;25866;52.420;10.640;2022-11-06T07:38:42;8.67;;;3.00;;
40150;SDS011;25866;52.420;10.640;2022-11-06T07:41:09;7.77;;;3.07;;
40150;SDS011;25866;52.420;10.640;2022-11-06T07:43:37;12.60;;;3.53;;
40150;SDS011;25866;52.420;10.640;2022-11-06T07:46:03;8.33;;;3.10;;
40150;SDS011;25866;52.420;10.640;2022-11-06T07:48:31;9.30;;;4.00;;
40150;SDS011;25866;52.420;10.640;2022-11-06T07:50:58;8.53;;;3.40;;
40150;SDS011;25866;52.420;10.640;2022-11-06T07:53:27;7.13;;;3.50;;
40150;SDS011;25866;52.420;10.640;2022-11-06T07:55:54;6.77;;;3.43;;
40150;SDS011;25866;52.420;10.640;2022-11-06T07:58:21;12.37;;;3.50;;
40150;SDS011;25866;52.420;10.640;2022-11-06T08:00:51;8.33;;;3.30;;
40150;SDS011;25866;52.420;10.640;2022-11-06T08:03:20;7.93;;;3.50;;
40150;SDS011;25866;52.420;10.640;2022-11-06T08:05:47;10.40;;;3.77;;
40150;SDS011;25866;52.420;10.640;2022-11-06T08:08:13;11.40;;;3.70;;
40150;SDS011;25866;52.420;10.640;2022-11-06T08:10:39;6.33;;;3.30;;
40150;SDS011;25866;52.420;10.640;2022-11-06T08:13:11;6.90;;;3.27;;
40150;SDS011;25866;52.420;10.640;2022-11-06T08:15:38;12.37;;;3.67;;
40150;SDS011;25866;52.420;10.640;2022-11-06T08:18:05;14.07;;;4.40;;
40150;SDS011;25866;52.420;10.640;2022-11-06T08:20:32;8.03;;;3.43;;
40150;SDS011;25866;52.420;10.640;2022-11-06T08:22:59;8.73;;;3.53;;
40150;SDS011;25866;52.420;10.640;2022-11-06T08:25:27;11.03;;;4.57;;
40150;SDS011;25866;52.420;10.640;2022-11-06T08:27:56;10.40;;;4.60;;
40150;SDS011;25866;52.420;10.640;2022-11-06T08:30:23;9.73;;;4.57;;
40150;SDS011;25866;52.420;10.640;2022-11-06T08:32:49;10.60;;;4.67;;
40150;SDS011;25866;52.420;10.640;2022-11-06T08:35:15;10.90;;;4.90;;
40150;SDS011;25866;52.420;10.640;2022-11-06T08:37:44;13.83;;;5.43;;
40150;SDS011;25866;52.420;10.640;2022-11-06T08:40:10;13.43;;;5.90;;
40150;SDS011;25866;52.420;10.640;2022-11-06T08:42:36;17.73;;;5.63;;
40150;SDS011;25866;52.420;10.640;2022-11-06T08:45:03;15.83;;;6.63;;
40150;SDS011;25866;52.420;10.640;2022-11-06T08:47:29;19.20;;;6.80;;
40150;SDS011;25866;52.420;10.640;2022-11-06T08:49:56;23.00;;;7.73;;
40150;SDS011;25866;52.420;10.640;2022-11-06T08:52:21;17.47;;;6.80;;
40150;SDS011;25866;52.420;10.640;2022-11-06T08:54:47;13.50;;;5.43;;
40150;SDS011;25866;52.420;10.640;2022-11-06T08:57:13;14.10;;;5.75;;
40150;SDS011;25866;52.420;10.640;2022-11-06T08:59:39;12.43;;;5.20;;
40150;SDS011;25866;52.420;10.640;2022-11-06T09:02:05;11.75;;;4.75;;
40150;SDS011;25866;52.420;10.640;2022-11-06T09:04:34;14.18;;;4.68;;
40150;SDS011;25866;52.420;10.640;2022-11-06T09:07:01;18.17;;;5.77;;
40150;SDS011;25866;52.420;10.640;2022-11-06T09:09:32;12.35;;;5.32;;
40150;SDS011;25866;52.420;10.640;2022-11-06T09:12:05;13.30;;;4.97;;
40150;SDS011;25866;52.420;10.640;2022-11-06T09:14:33;12.63;;;5.55;;
40150;SDS011;25866;52.420;10.640;2022-11-06T09:16:59;16.17;;;5.70;;
40150;SDS011;25866;52.420;10.640;2022-11-06T09:19:25;9.52;;;4.35;;
40150;SDS011;25866;52.420;10.640;2022-11-06T09:21:52;11.57;;;4.60;;
40150;SDS011;25866;52.420;10.640;2022-11-06T09:24:17;9.95;;;4.72;;
40150;SDS011;25866;52.420;10.640;2022-11-06T09:26:43;9.35;;;4.60;;
40150;SDS011;25866;52.420;10.640;2022-11-06T09:29:09;13.15;;;5.00;;
40150;SDS011;25866;52.420;10.640;2022-11-06T09:31:35;8.48;;;4.20;;
40150;SDS011;25866;52.420;10.640;2022-11-06T09:34:02;11.88;;;4.63;;
40150;SDS011;25866;52.420;10.640;2022-11-06T09:36:28;9.10;;;4.30;;
40150;SDS011;25866;52.420;10.640;2022-11-06T09:38:53;9.48;;;4.22;;
40150;SDS011;25866;52.420;10.640;2022-11-06T09:44:21;10.10;;;4.07;;
40150;SDS011;25866;52.420;10.640;2022-11-06T09:46:50;9.88;;;3.85;;
40150;SDS011;25866;52.420;10.640;2022-11-06T09:52:30;9.18;;;3.75;;
40150;SDS011;25866;52.420;10.640;2022-11-06T09:55:01;9.70;;;3.70;;
40150;SDS011;25866;52.420;10.640;2022-11-06T09:57:36;6.03;;;3.22;;
40150;SDS011;25866;52.420;10.640;2022-11-06T10:00:24;14.30;;;3.15;;
40150;SDS011;25866;52.420;10.640;2022-11-06T10:02:51;12.77;;;3.50;;
40150;SDS011;25866;52.420;10.640;2022-11-06T10:05:24;7.15;;;3.03;;
40150;SDS011;25866;52.420;10.640;2022-11-06T10:07:54;7.07;;;3.15;;
40150;SDS011;25866;52.420;10.640;2022-11-06T10:27:30;6.32;;;2.20;;
40150;SDS011;25866;52.420;10.640;2022-11-06T10:35:41;7.45;;;1.90;;
40150;SDS011;25866;52.420;10.640;2022-11-06T10:38:13;4.72;;;1.70;;
40150;SDS011;25866;52.420;10.640;2022-11-06T10:40:42;7.13;;;1.88;;
40150;SDS011;25866;52.420;10.640;2022-11-06T10:46:10;6.03;;;1.60;;
40150;SDS011;25866;52.420;10.640;2022-11-06T10:48:45;2.58;;;1.30;;
40150;SDS011;25866;52.420;10.640;2022-11-06T10:59:11;5.95;;;1.88;;
40150;SDS011;25866;52.420;10.640;2022-11-06T11:01:38;3.42;;;1.30;;
40150;SDS011;25866;52.420;10.640;2022-11-06T11:04:04;4.25;;;1.50;;
40150;SDS011;25866;52.420;10.640;2022-11-06T11:06:30;3.72;;;1.40;;
40150;SDS011;25866;52.420;10.640;2022-11-06T11:08:56;2.60;;;1.38;;
40150;SDS011;25866;52.420;10.640;2022-11-06T11:11:22;4.55;;;1.65;;
40150;SDS011;25866;52.420;10.640;2022-11-06T11:14:10;3.55;;;1.52;;
40150;SDS011;25866;52.420;10.640;2022-11-06T11:16:37;4.40;;;1.60;;
40150;SDS011;25866;52.420;10.640;2022-11-06T11:19:21;5.70;;;1.67;;
40150;SDS011;25866;52.420;10.640;2022-11-06T11:21:55;3.63;;;1.60;;
40150;SDS011;25866;52.420;10.640;2022-11-06T11:24:26;1.55;;;1.13;;
40150;SDS011;25866;52.420;10.640;2022-11-06T11:26:54;2.88;;;1.40;;
40150;SDS011;25866;52.420;10.640;2022-11-06T11:29:32;5.93;;;1.33;;
40150;SDS011;25866;52.420;10.640;2022-11-06T11:32:06;3.80;;;1.30;;
40150;SDS011;25866;52.420;10.640;2022-11-06T11:34:36;3.75;;;1.40;;
40150;SDS011;25866;52.420;10.640;2022-11-06T11:37:20;6.07;;;1.40;;
40150;SDS011;25866;52.420;10.640;2022-11-06T11:42:45;2.58;;;1.10;;
40150;SDS011;25866;52.420;10.640;2022-11-06T11:45:12;1.95;;;1.20;;
40150;SDS011;25866;52.420;10.640;2022-11-06T11:47:46;2.45;;;1.00;;
40150;SDS011;25866;52.420;10.640;2022-11-06T11:50:32;1.15;;;0.90;;
40150;SDS011;25866;52.420;10.640;2022-11-06T11:55:31;5.75;;;1.25;;
40150;SDS011;25866;52.420;10.640;2022-11-06T11:58:13;2.35;;;1.08;;
40150;SDS011;25866;52.420;10.640;2022-11-06T12:00:56;6.07;;;1.10;;
40150;SDS011;25866;52.420;10.640;2022-11-06T12:03:25;3.30;;;1.27;;
40150;SDS011;25866;52.420;10.640;2022-11-06T12:06:03;3.17;;;1.10;;
40150;SDS011;25866;52.420;10.640;2022-11-06T12:08:34;1.60;;;0.98;;
40150;SDS011;25866;52.420;10.640;2022-11-06T12:11:03;2.22;;;0.90;;
40150;SDS011;25866;52.420;10.640;2022-11-06T12:13:30;3.03;;;1.10;;
40150;SDS011;25866;52.420;10.640;2022-11-06T12:18:38;1.75;;;1.00;;
40150;SDS011;25866;52.420;10.640;2022-11-06T12:26:14;5.32;;;1.10;;
40150;SDS011;25866;52.420;10.640;2022-11-06T12:28:44;4.38;;;1.10;;
40150;SDS011;25866;52.420;10.640;2022-11-06T12:31:19;3.33;;;0.98;;
40150;SDS011;25866;52.420;10.640;2022-11-06T12:33:47;5.03;;;1.17;;
40150;SDS011;25866;52.420;10.640;2022-11-06T12:36:17;2.88;;;1.10;;
40150;SDS011;25866;52.420;10.640;2022-11-06T12:38:47;4.18;;;1.00;;
40150;SDS011;25866;52.420;10.640;2022-11-06T12:41:20;3.47;;;1.20;;
40150;SDS011;25866;52.420;10.640;2022-11-06T12:43:55;4.25;;;1.50;;
40150;SDS011;25866;52.420;10.640;2022-11-06T12:57:26;2.60;;;0.90;;
40150;SDS011;25866;52.420;10.640;2022-11-06T13:00:23;6.57;;;1.00;;
40150;SDS011;25866;52.420;10.640;2022-11-06T13:05:46;3.88;;;1.25;;
40150;SDS011;25866;52.420;10.640;2022-11-06T13:10:58;2.40;;;1.05;;
40150;SDS011;25866;52.420;10.640;2022-11-06T13:16:52;3.65;;;0.90;;
40150;SDS011;25866;52.420;10.640;2022-11-06T13:20:02;3.25;;;1.05;;
40150;SDS011;25866;52.420;10.640;2022-11-06T13:22:59;3.50;;;1.02;;
40150;SDS011;25866;52.420;10.640;2022-11-06T13:26:00;4.90;;;1.20;;
40150;SDS011;25866;52.420;10.640;2022-11-06T13:28:33;3.92;;;0.80;;
40150;SDS011;25866;52.420;10.640;2022-11-06T13:31:05;2.40;;;0.90;;
40150;SDS011;25866;52.420;10.640;2022-11-06T13:33:40;2.72;;;0.90;;
40150;SDS011;25866;52.420;10.640;2022-11-06T13:36:10;2.63;;;1.15;;
40150;SDS011;25866;52.420;10.640;2022-11-06T13:38:37;5.63;;;0.93;;
40150;SDS011;25866;52.420;10.640;2022-11-06T13:41:13;4.22;;;0.93;;
40150;SDS011;25866;52.420;10.640;2022-11-06T13:43:50;2.35;;;1.00;;
40150;SDS011;25866;52.420;10.640;2022-11-06T13:52:20;4.78;;;0.68;;
40150;SDS011;25866;52.420;10.640;2022-11-06T13:55:04;2.63;;;1.05;;
40150;SDS011;25866;52.420;10.640;2022-11-06T14:03:17;3.63;;;0.85;;
40150;SDS011;25866;52.420;10.640;2022-11-06T14:08:30;0.80;;;0.60;;
40150;SDS011;25866;52.420;10.640;2022-11-06T14:11:10;2.88;;;0.80;;
40150;SDS011;25866;52.420;10.640;2022-11-06T14:13:58;2.72;;;0.90;;
40150;SDS011;25866;52.420;10.640;2022-11-06T14:16:25;3.95;;;1.08;;
40150;SDS011;25866;52.420;10.640;2022-11-06T14:18:57;5.20;;;1.30;;
40150;SDS011;25866;52.420;10.640;2022-11-06T14:21:40;3.15;;;1.23;;
40150;SDS011;25866;52.420;10.640;2022-11-06T14:24:28;6.30;;;1.20;;
40150;SDS011;25866;52.420;10.640;2022-11-06T14:26:54;2.78;;;1.30;;
40150;SDS011;25866;52.420;10.640;2022-11-06T14:34:35;3.40;;;0.90;;
40150;SDS011;25866;52.420;10.640;2022-11-06T14:42:31;4.47;;;1.27;;
40150;SDS011;25866;52.420;10.640;2022-11-06T14:52:57;3.90;;;1.00;;
40150;SDS011;25866;52.420;10.640;2022-11-06T14:58:00;2.38;;;0.90;;
40150;SDS011;25866;52.420;10.640;2022-11-06T15:00:52;2.05;;;0.98;;
40150;SDS011;25866;52.420;10.640;2022-11-06T15:03:28;1.83;;;0.98;;
40150;SDS011;25866;52.420;10.640;2022-11-06T15:16:38;2.17;;;0.90;;
40150;SDS011;25866;52.420;10.640;2022-11-06T15:19:12;5.65;;;1.30;;
40150;SDS011;25866;52.420;10.640;2022-11-06T15:21:55;5.13;;;1.45;;
40150;SDS011;25866;52.420;10.640;2022-11-06T15:24:30;5.72;;;1.13;;
40150;SDS011;25866;52.420;10.640;2022-11-06T15:27:06;3.47;;;1.13;;
40150;SDS011;25866;52.420;10.640;2022-11-06T15:29:38;6.32;;;1.10;;
40150;SDS011;25866;52.420;10.640;2022-11-06T15:32:12;4.68;;;1.10;;
40150;SDS011;25866;52.420;10.640;2022-11-06T15:37:34;2.25;;;0.85;;
40150;SDS011;25866;52.420;10.640;2022-11-06T15:40:05;4.93;;;1.10;;
40150;SDS011;25866;52.420;10.640;2022-11-06T15:43:05;6.47;;;1.30;;
40150;SDS011;25866;52.420;10.640;2022-11-06T15:45:38;4.47;;;1.20;;
40150;SDS011;25866;52.420;10.640;2022-11-06T15:48:04;2.30;;;1.30;;
40150;SDS011;25866;52.420;10.640;2022-11-06T15:50:41;1.60;;;1.05;;
40150;SDS011;25866;52.420;10.640;2022-11-06T15:55:37;3.55;;;1.40;;
40150;SDS011;25866;52.420;10.640;2022-11-06T16:00:44;2.80;;;1.35;;
40150;SDS011;25866;52.420;10.640;2022-11-06T16:03:14;3.65;;;1.13;;
40150;SDS011;25866;52.420;10.640;2022-11-06T16:05:42;7.32;;;1.33;;
40150;SDS011;25866;52.420;10.640;2022-11-06T16:08:10;3.80;;;1.20;;
40150;SDS011;25866;52.420;10.640;2022-11-06T16:10:38;5.05;;;1.20;;
40150;SDS011;25866;52.420;10.640;2022-11-06T16:13:05;2.83;;;1.02;;
40150;SDS011;25866;52.420;10.640;2022-11-06T16:18:20;4.78;;;1.30;;
40150;SDS011;25866;52.420;10.640;2022-11-06T16:21:09;3.00;;;1.30;;
40150;SDS011;25866;52.420;10.640;2022-11-06T16:23:45;2.10;;;1.15;;
40150;SDS011;25866;52.420;10.640;2022-11-06T16:28:56;5.05;;;1.50;;
40150;SDS011;25866;52.420;10.640;2022-11-06T16:31:24;2.92;;;1.48;;
40150;SDS011;25866;52.420;10.640;2022-11-06T16:33:53;4.70;;;1.67;;
40150;SDS011;25866;52.420;10.640;2022-11-06T16:36:20;6.38;;;1.40;;
40150;SDS011;25866;52.420;10.640;2022-11-06T16:38:47;2.88;;;1.35;;
40150;SDS011;25866;52.420;10.640;2022-11-06T16:41:13;5.80;;;1.38;;
40150;SDS011;25866;52.420;10.640;2022-11-06T16:44:19;4.55;;;1.48;;
40150;SDS011;25866;52.420;10.640;2022-11-06T16:47:09;6.50;;;1.40;;
40150;SDS011;25866;52.420;10.640;2022-11-06T16:49:46;7.00;;;1.50;;
40150;SDS011;25866;52.420;10.640;2022-11-06T16:57:42;3.53;;;1.60;;
40150;SDS011;25866;52.420;10.640;2022-11-06T17:00:30;4.53;;;1.40;;
40150;SDS011;25866;52.420;10.640;2022-11-06T17:03:04;2.90;;;1.15;;
40150;SDS011;25866;52.420;10.640;2022-11-06T17:05:36;3.33;;;1.60;;
40150;SDS011;25866;52.420;10.640;2022-11-06T17:13:39;3.22;;;1.48;;
40150;SDS011;25866;52.420;10.640;2022-11-06T17:16:12;6.57;;;1.38;;
40150;SDS011;25866;52.420;10.640;2022-11-06T17:18:39;3.37;;;1.63;;
40150;SDS011;25866;52.420;10.640;2022-11-06T17:21:11;2.10;;;1.50;;
40150;SDS011;25866;52.420;10.640;2022-11-06T17:23:37;2.50;;;1.30;;
40150;SDS011;25866;52.420;10.640;2022-11-06T17:26:10;2.92;;;1.58;;
40150;SDS011;25866;52.420;10.640;2022-11-06T17:28:57;1.48;;;1.20;;
40150;SDS011;25866;52.420;10.640;2022-11-06T17:31:24;7.18;;;1.83;;
40150;SDS011;25866;52.420;10.640;2022-11-06T17:33:50;6.82;;;1.48;;
40150;SDS011;25866;52.420;10.640;2022-11-06T17:36:17;1.98;;;1.20;;
40150;SDS011;25866;52.420;10.640;2022-11-06T17:38:45;2.17;;;1.58;;
40150;SDS011;25866;52.420;10.640;2022-11-06T17:41:12;1.60;;;0.90;;
40150;SDS011;25866;52.420;10.640;2022-11-06T17:43:57;1.57;;;1.00;;
40150;SDS011;25866;52.420;10.640;2022-11-06T17:46:32;1.35;;;1.10;;
40150;SDS011;25866;52.420;10.640;2022-11-06T17:49:01;2.20;;;1.20;;
40150;SDS011;25866;52.420;10.640;2022-11-06T17:51:28;1.58;;;0.93;;
40150;SDS011;25866;52.420;10.640;2022-11-06T17:54:12;3.27;;;1.20;;
40150;SDS011;25866;52.420;10.640;2022-11-06T17:56:39;1.60;;;1.10;;
40150;SDS011;25866;52.420;10.640;2022-11-06T17:59:07;4.25;;;1.40;;
40150;SDS011;25866;52.420;10.640;2022-11-06T18:01:33;1.45;;;1.10;;
40150;SDS011;25866;52.420;10.640;2022-11-06T18:03:59;2.00;;;1.30;;